createdAt,value
2022-12-08T00:00:19.307Z,12.50
2022-12-08T00:02:52.869Z,12.77
2022-12-08T00:05:38.867Z,14.10
2022-12-08T00:08:30.742Z,11.47
2022-12-08T00:10:58.053Z,9.13
2022-12-08T00:13:25.811Z,11.47
2022-12-08T00:15:59.700Z,9.87
2022-12-08T00:18:26.731Z,9.77
2022-12-08T00:20:58.619Z,12.27
2022-12-08T00:23:32.885Z,9.93
2022-12-08T00:26:07.244Z,10.07
2022-12-08T00:28:42.473Z,11.27
2022-12-08T00:31:11.748Z,11.50
2022-12-08T00:33:40.090Z,12.40
2022-12-08T00:36:15.742Z,10.33
2022-12-08T00:38:45.011Z,10.40
2022-12-08T00:41:46.751Z,8.80
2022-12-08T00:44:23.807Z,10.17
2022-12-08T00:47:03.705Z,10.80
2022-12-08T00:49:31.181Z,8.53
2022-12-08T00:51:58.290Z,11.83
2022-12-08T00:54:31.737Z,11.80
2022-12-08T00:56:58.748Z,10.40
2022-12-08T00:59:25.714Z,11.43
2022-12-08T01:01:59.914Z,9.47
2022-12-08T01:04:27.192Z,11.27
2022-12-08T01:06:54.258Z,10.03
2022-12-08T01:09:27.822Z,12.03
2022-12-08T01:11:54.782Z,11.33
2022-12-08T01:14:22.078Z,10.70
2022-12-08T01:16:55.844Z,13.60
2022-12-08T01:19:23.100Z,14.97
2022-12-08T01:21:50.257Z,10.80
2022-12-08T01:24:27.746Z,12.30
2022-12-08T01:26:54.862Z,11.50
2022-12-08T01:29:22.483Z,8.90
2022-12-08T01:31:55.733Z,10.67
2022-12-08T01:34:22.837Z,7.80
2022-12-08T01:36:50.207Z,9.27
2022-12-08T01:39:25.855Z,10.33
2022-12-08T01:41:53.034Z,9.17
2022-12-08T01:44:33.778Z,10.63
2022-12-08T01:47:07.448Z,17.67
2022-12-08T01:49:43.754Z,13.57
2022-12-08T01:52:21.758Z,13.53
2022-12-08T01:55:23.769Z,13.67
2022-12-08T01:58:01.764Z,10.73
2022-12-08T02:00:35.805Z,15.17
2022-12-08T02:03:09.139Z,10.27
2022-12-08T02:05:46.852Z,14.33
2022-12-08T02:08:14.572Z,14.43
2022-12-08T02:10:43.382Z,12.70
2022-12-08T02:13:22.857Z,13.37
2022-12-08T02:16:16.127Z,12.60
2022-12-08T02:20:07.810Z,12.77
2022-12-08T02:23:22.660Z,16.97
2022-12-08T02:26:47.731Z,15.27
2022-12-08T02:29:35.955Z,13.43
2022-12-08T02:32:11.759Z,16.83
2022-12-08T02:35:13.525Z,15.60
2022-12-08T02:38:14.759Z,12.70
2022-12-08T02:41:29.241Z,12.57
2022-12-08T02:44:28.745Z,11.17
2022-12-08T02:47:18.985Z,17.43
2022-12-08T02:49:52.750Z,14.13
2022-12-08T02:52:19.644Z,17.00
2022-12-08T02:55:04.760Z,13.67
2022-12-08T02:58:09.853Z,15.60
2022-12-08T03:01:06.767Z,16.27
2022-12-08T03:03:55.775Z,14.60
2022-12-08T03:07:02.758Z,19.67
2022-12-08T03:09:56.360Z,15.70
2022-12-08T03:12:50.898Z,16.80
2022-12-08T03:15:21.629Z,13.27
2022-12-08T03:18:04.060Z,16.30
2022-12-08T03:20:34.592Z,15.67
2022-12-08T03:23:15.706Z,16.67
2022-12-08T03:26:10.595Z,15.33
2022-12-08T03:28:44.721Z,19.60
2022-12-08T03:31:15.909Z,17.53
2022-12-08T03:33:54.779Z,15.00
2022-12-08T03:36:22.630Z,16.60
2022-12-08T03:38:54.321Z,17.23
2022-12-08T03:41:29.811Z,15.67
2022-12-08T03:43:59.649Z,15.07
2022-12-08T03:46:39.758Z,14.43
2022-12-08T03:49:06.803Z,17.33
2022-12-08T03:51:34.018Z,21.90
2022-12-08T03:54:07.801Z,17.87
2022-12-08T03:56:38.480Z,20.03
2022-12-08T03:59:07.318Z,15.87
2022-12-08T04:01:41.813Z,20.23
2022-12-08T04:04:08.996Z,17.90
2022-12-08T04:06:36.337Z,16.17
2022-12-08T04:09:10.716Z,17.03
2022-12-08T04:11:37.784Z,15.57
2022-12-08T04:14:04.899Z,14.30
2022-12-08T04:16:38.790Z,15.33
2022-12-08T04:19:06.382Z,13.97
2022-12-08T04:21:33.576Z,15.83
2022-12-08T04:24:08.808Z,18.30
2022-12-08T04:26:35.952Z,18.30
2022-12-08T04:29:03.107Z,18.83
2022-12-08T04:31:37.189Z,14.67
2022-12-08T04:34:04.537Z,18.00
2022-12-08T04:36:31.563Z,13.83
2022-12-08T04:39:04.730Z,13.43
2022-12-08T04:41:31.804Z,15.67
2022-12-08T04:43:58.849Z,16.97
2022-12-08T04:46:32.884Z,14.17
2022-12-08T04:48:59.982Z,15.03
2022-12-08T04:51:27.540Z,18.13
2022-12-08T04:54:00.794Z,17.30
2022-12-08T04:56:28.096Z,16.97
2022-12-08T04:58:55.401Z,16.10
2022-12-08T05:01:28.779Z,16.20
2022-12-08T05:03:55.854Z,14.93
2022-12-08T05:06:23.160Z,15.93
2022-12-08T05:08:56.857Z,17.40
2022-12-08T05:11:24.011Z,13.57
2022-12-08T05:13:51.268Z,16.73
2022-12-08T05:16:24.989Z,16.53
2022-12-08T05:18:52.005Z,18.63
2022-12-08T05:21:19.058Z,16.67
2022-12-08T05:23:52.770Z,15.10
2022-12-08T05:26:19.856Z,14.93
2022-12-08T05:28:47.014Z,16.67
2022-12-08T05:31:23.761Z,13.13
2022-12-08T05:33:52.542Z,12.37
2022-12-08T05:36:20.650Z,16.07
2022-12-08T05:38:54.831Z,13.13
2022-12-08T05:41:21.938Z,12.87
2022-12-08T05:43:49.514Z,13.93
2022-12-08T05:46:24.784Z,12.23
2022-12-08T05:48:51.886Z,15.50
2022-12-08T05:51:23.100Z,11.87
2022-12-08T05:53:58.844Z,12.67
2022-12-08T05:56:26.159Z,14.93
2022-12-08T05:58:53.233Z,10.40
2022-12-08T06:01:36.846Z,12.73
2022-12-08T06:04:05.493Z,14.83
2022-12-08T06:06:35.409Z,12.07
2022-12-08T06:09:11.806Z,12.00
2022-12-08T06:11:38.981Z,14.50
2022-12-08T06:14:12.354Z,13.43
2022-12-08T06:16:46.912Z,11.50
2022-12-08T06:19:14.134Z,14.33
2022-12-08T06:21:41.262Z,15.90
2022-12-08T06:24:14.880Z,13.40
2022-12-08T06:26:42.381Z,13.13
2022-12-08T06:29:09.817Z,11.03
2022-12-08T06:31:43.778Z,11.03
2022-12-08T06:34:10.861Z,10.60
2022-12-08T06:36:37.995Z,11.53
2022-12-08T06:39:11.809Z,11.50
2022-12-08T06:41:58.811Z,12.77
2022-12-08T06:44:33.073Z,9.27
2022-12-08T06:47:07.041Z,12.70
2022-12-08T06:49:40.814Z,10.37
2022-12-08T06:52:07.866Z,14.77
2022-12-08T06:54:35.056Z,15.87
2022-12-08T06:57:08.794Z,8.17
2022-12-08T06:59:36.442Z,11.30
2022-12-08T07:02:04.019Z,11.33
2022-12-08T07:04:37.781Z,9.97
2022-12-08T07:07:04.970Z,10.30
2022-12-08T07:09:32.074Z,8.47
2022-12-08T07:12:05.797Z,9.67
2022-12-08T07:14:32.930Z,9.87
2022-12-08T07:17:00.552Z,11.33
2022-12-08T07:19:33.810Z,12.90
2022-12-08T07:22:00.825Z,8.57
2022-12-08T07:24:27.833Z,9.97
2022-12-08T07:27:01.992Z,7.90
2022-12-08T07:29:28.928Z,11.03
2022-12-08T07:31:55.986Z,14.17
2022-12-08T07:34:29.843Z,12.50
2022-12-08T07:36:57.201Z,12.50
2022-12-08T07:39:24.417Z,10.80
2022-12-08T07:41:58.034Z,12.03
2022-12-08T07:44:25.179Z,8.87
2022-12-08T07:47:04.875Z,8.80
2022-12-08T07:49:32.034Z,8.23
2022-12-08T07:51:59.118Z,9.00
2022-12-08T07:54:34.808Z,10.93
2022-12-08T07:57:03.727Z,10.67
2022-12-08T07:59:30.862Z,7.73
2022-12-08T08:02:23.304Z,8.13
2022-12-08T08:04:51.900Z,6.73
2022-12-08T08:07:26.099Z,7.13
2022-12-08T08:09:53.204Z,9.83
2022-12-08T08:12:31.176Z,11.47
2022-12-08T08:15:07.941Z,6.70
2022-12-08T08:17:37.594Z,5.50
2022-12-08T08:20:14.793Z,8.40
2022-12-08T08:22:41.829Z,7.27
2022-12-08T08:25:09.377Z,6.70
2022-12-08T08:27:42.776Z,5.97
2022-12-08T08:30:19.628Z,7.17
2022-12-08T08:32:54.848Z,7.67
2022-12-08T08:35:21.897Z,5.53
2022-12-08T08:37:49.621Z,4.43
2022-12-08T08:40:24.875Z,4.50
2022-12-08T08:42:52.155Z,3.97
2022-12-08T08:45:33.189Z,4.40
2022-12-08T08:48:06.541Z,5.60
2022-12-08T08:50:39.807Z,3.03
2022-12-08T08:53:06.764Z,3.30
2022-12-08T08:55:33.712Z,3.50
2022-12-08T08:58:06.796Z,3.17
2022-12-08T09:00:33.834Z,3.23
2022-12-08T09:03:00.861Z,3.10
2022-12-08T09:05:34.818Z,3.40
2022-12-08T09:08:01.830Z,3.87
2022-12-08T09:10:29.022Z,3.13
2022-12-08T09:13:02.830Z,3.73
2022-12-08T09:15:30.008Z,2.97
2022-12-08T09:17:57.212Z,3.33
2022-12-08T09:20:30.864Z,3.53
2022-12-08T09:22:57.880Z,3.03
2022-12-08T09:25:24.868Z,2.70
2022-12-08T09:27:58.792Z,3.53
2022-12-08T09:30:25.970Z,4.23
2022-12-08T09:32:53.100Z,3.00
2022-12-08T09:35:26.901Z,2.93
2022-12-08T09:37:53.868Z,3.33
2022-12-08T09:40:24.122Z,3.97
2022-12-08T09:43:29.817Z,2.63
2022-12-08T09:46:04.980Z,2.93
2022-12-08T09:48:54.919Z,3.03
2022-12-08T09:51:30.571Z,3.03
2022-12-08T09:54:25.866Z,3.50
2022-12-08T09:56:59.331Z,3.37
2022-12-08T09:59:41.796Z,2.77
2022-12-08T10:02:24.889Z,3.63
2022-12-08T10:05:01.903Z,2.70
2022-12-08T10:07:39.460Z,3.50
2022-12-08T10:10:43.809Z,2.53
2022-12-08T10:13:19.844Z,3.27
2022-12-08T10:16:28.007Z,2.85
2022-12-08T10:19:13.729Z,2.88
2022-12-08T10:21:47.830Z,3.03
2022-12-08T10:24:48.729Z,2.05
2022-12-08T10:27:22.873Z,5.03
2022-12-08T10:29:50.116Z,3.83
2022-12-08T10:32:31.826Z,2.83
2022-12-08T10:35:12.350Z,2.35
2022-12-08T10:37:46.843Z,2.33
2022-12-08T10:40:18.124Z,1.80
2022-12-08T10:42:59.822Z,3.70
2022-12-08T10:45:35.866Z,2.10
2022-12-08T10:48:27.892Z,2.77
2022-12-08T10:50:58.042Z,2.63
2022-12-08T10:53:37.842Z,3.30
2022-12-08T10:56:04.791Z,2.63
2022-12-08T10:58:48.831Z,3.90
2022-12-08T11:01:29.945Z,4.63
2022-12-08T11:04:21.842Z,4.93
2022-12-08T11:06:51.576Z,6.43
2022-12-08T11:09:18.690Z,4.57
2022-12-08T11:11:57.830Z,4.60
2022-12-08T11:14:45.977Z,4.43
2022-12-08T11:17:33.812Z,5.30
2022-12-08T11:20:19.691Z,5.03
2022-12-08T11:23:00.884Z,4.40
2022-12-08T11:25:34.951Z,5.03
2022-12-08T11:28:08.855Z,4.37
2022-12-08T11:30:44.109Z,3.57
2022-12-08T11:33:28.864Z,2.27
2022-12-08T11:36:07.555Z,1.77
2022-12-08T11:38:48.814Z,2.77
2022-12-08T11:41:21.843Z,2.70
2022-12-08T11:44:19.897Z,3.40
2022-12-08T11:46:59.945Z,1.90
2022-12-08T11:49:44.814Z,4.17
2022-12-08T11:52:27.464Z,2.43
2022-12-08T11:55:36.979Z,2.83
2022-12-08T11:58:32.333Z,2.77
2022-12-08T12:01:05.851Z,3.30
2022-12-08T12:03:46.984Z,2.20
2022-12-08T12:06:56.864Z,2.50
2022-12-08T12:10:15.563Z,3.63
2022-12-08T12:13:44.838Z,2.50
2022-12-08T12:16:23.586Z,2.20
2022-12-08T12:19:06.873Z,3.10
2022-12-08T12:21:50.408Z,3.47
2022-12-08T12:24:37.829Z,2.20
2022-12-08T12:27:39.221Z,1.87
2022-12-08T12:30:35.870Z,2.97
2022-12-08T12:33:11.970Z,2.50
2022-12-08T12:35:51.891Z,1.77
2022-12-08T12:39:01.602Z,2.67
2022-12-08T12:41:48.875Z,3.07
2022-12-08T12:44:15.798Z,1.90
2022-12-08T12:47:18.835Z,2.10
2022-12-08T12:49:46.202Z,3.63
2022-12-08T12:52:16.132Z,2.20
2022-12-08T12:54:51.805Z,1.90
2022-12-08T12:57:18.706Z,3.90
2022-12-08T13:00:05.559Z,2.07
2022-12-08T13:02:44.943Z,2.37
2022-12-08T13:05:48.687Z,2.03
2022-12-08T13:08:30.860Z,1.60
2022-12-08T13:11:11.931Z,1.50
2022-12-08T13:14:10.852Z,1.70
2022-12-08T13:16:40.020Z,1.90
2022-12-08T13:19:22.844Z,2.90
2022-12-08T13:21:49.872Z,3.63
2022-12-08T13:24:32.862Z,2.60
2022-12-08T13:27:06.023Z,2.53
2022-12-08T13:29:44.899Z,2.23
2022-12-08T13:32:11.747Z,1.50
2022-12-08T13:35:04.926Z,1.97
2022-12-08T13:37:54.561Z,3.13
2022-12-08T13:40:33.822Z,2.57
2022-12-08T13:43:47.368Z,2.60
2022-12-08T13:47:09.843Z,2.53
2022-12-08T13:56:59.507Z,2.53
2022-12-08T13:58:53.850Z,1.83
2022-12-08T14:01:24.253Z,3.40
2022-12-08T14:04:34.264Z,5.13
2022-12-08T14:07:12.315Z,3.30
2022-12-08T14:09:48.931Z,5.23
2022-12-08T14:12:28.557Z,4.57
2022-12-08T14:15:09.849Z,4.60
2022-12-08T14:17:40.203Z,3.47
2022-12-08T14:20:19.907Z,4.03
2022-12-08T14:22:48.714Z,5.83
2022-12-08T14:25:18.457Z,6.03
2022-12-08T14:27:52.882Z,6.23
2022-12-08T14:30:33.209Z,7.30
2022-12-08T14:33:09.879Z,5.53
2022-12-08T14:35:39.112Z,6.40
2022-12-08T14:38:23.987Z,6.70
2022-12-08T14:41:11.749Z,8.07
2022-12-08T14:43:47.916Z,6.63
2022-12-08T14:46:36.873Z,5.33
2022-12-08T14:49:10.871Z,8.33
2022-12-08T14:51:40.147Z,9.47
2022-12-08T14:54:21.982Z,6.40
2022-12-08T14:56:54.342Z,5.40
2022-12-08T14:59:36.834Z,7.47
2022-12-08T15:02:31.169Z,6.00
2022-12-08T15:05:24.975Z,6.97
2022-12-08T15:08:01.199Z,7.43
2022-12-08T15:10:38.874Z,9.93
2022-12-08T15:13:11.645Z,7.40
2022-12-08T15:15:54.148Z,6.93
2022-12-08T15:18:41.151Z,8.13
2022-12-08T15:21:19.891Z,6.63
2022-12-08T15:23:50.760Z,7.10
2022-12-08T15:26:30.860Z,6.30
2022-12-08T15:28:57.848Z,5.63
2022-12-08T15:31:24.854Z,5.23
2022-12-08T15:33:57.906Z,7.93
2022-12-08T15:36:24.916Z,6.10
2022-12-08T15:38:51.928Z,6.37
2022-12-08T15:41:26.282Z,6.87
2022-12-08T15:43:53.270Z,6.83
2022-12-08T15:46:40.967Z,6.50
2022-12-08T15:49:17.947Z,8.13
2022-12-08T15:51:55.693Z,7.13
2022-12-08T15:54:28.033Z,6.63
2022-12-08T15:57:19.559Z,7.03
2022-12-08T15:59:47.826Z,7.67
2022-12-08T16:02:25.048Z,8.53
2022-12-08T16:07:47.088Z,7.57
2022-12-08T16:10:22.137Z,8.30
2022-12-08T16:13:56.216Z,9.17
2022-12-08T16:16:13.884Z,13.43
2022-12-08T16:18:47.875Z,9.40
2022-12-08T16:21:40.193Z,9.53
2022-12-08T16:24:09.930Z,9.57
2022-12-08T16:27:50.592Z,8.43
2022-12-08T16:29:30.918Z,9.10
2022-12-08T16:31:57.953Z,8.30
2022-12-08T16:34:24.967Z,13.97
2022-12-08T16:36:58.907Z,15.63
2022-12-08T16:39:25.932Z,13.50
2022-12-08T16:42:17.880Z,11.07
2022-12-08T16:44:45.033Z,36.20
2022-12-08T16:47:24.903Z,23.70
2022-12-08T16:49:51.882Z,11.13
2022-12-08T16:52:18.948Z,11.60
2022-12-08T16:54:52.913Z,10.70
2022-12-08T16:57:19.970Z,11.20
2022-12-08T16:59:46.986Z,9.50
2022-12-08T17:02:20.907Z,12.00
2022-12-08T17:04:48.062Z,11.13
2022-12-08T17:07:15.204Z,13.87
2022-12-08T17:09:49.026Z,20.00
2022-12-08T17:12:16.207Z,15.43
2022-12-08T17:14:43.791Z,12.10
2022-12-08T17:17:17.978Z,11.70
2022-12-08T17:19:45.049Z,14.00
2022-12-08T17:22:12.018Z,12.50
2022-12-08T17:24:46.107Z,12.30
2022-12-08T17:27:13.335Z,10.03
2022-12-08T17:29:40.536Z,11.60
2022-12-08T17:32:13.944Z,14.90
2022-12-08T17:34:41.035Z,11.23
2022-12-08T17:37:08.120Z,11.10
2022-12-08T17:39:44.871Z,13.17
2022-12-08T17:42:11.904Z,12.17
2022-12-08T17:44:39.137Z,11.10
2022-12-08T17:47:13.004Z,9.60
2022-12-08T17:49:47.023Z,11.43
2022-12-08T17:52:20.918Z,12.50
2022-12-08T17:54:47.879Z,10.57
2022-12-08T17:57:14.938Z,19.43
2022-12-08T17:59:48.877Z,14.37
2022-12-08T18:02:16.074Z,9.90
2022-12-08T18:04:43.181Z,11.17
2022-12-08T18:07:16.960Z,12.93
2022-12-08T18:09:44.056Z,14.77
2022-12-08T18:12:11.164Z,12.77
2022-12-08T18:14:45.282Z,11.70
2022-12-08T18:17:12.718Z,10.83
2022-12-08T18:19:40.079Z,12.97
2022-12-08T18:22:14.138Z,11.73
2022-12-08T18:24:42.493Z,10.43
2022-12-08T18:27:09.608Z,10.97
2022-12-08T18:29:42.916Z,10.13
2022-12-08T18:32:10.003Z,9.83
2022-12-08T18:34:37.058Z,9.37
2022-12-08T18:37:10.935Z,9.00
2022-12-08T18:39:37.959Z,12.63
2022-12-08T18:42:28.916Z,9.73
2022-12-08T18:45:02.835Z,12.17
2022-12-08T18:47:46.920Z,7.70
2022-12-08T18:50:21.101Z,11.40
2022-12-08T18:52:55.010Z,6.90
2022-12-08T18:55:22.725Z,16.47
2022-12-08T18:57:50.017Z,8.37
2022-12-08T19:00:26.895Z,11.30
2022-12-08T19:02:54.184Z,8.67
2022-12-08T19:05:21.293Z,13.00
2022-12-08T19:07:56.057Z,12.70
2022-12-08T19:10:23.196Z,10.03
2022-12-08T19:12:52.640Z,13.97
2022-12-08T19:15:27.024Z,10.00
2022-12-08T19:17:54.176Z,11.33
2022-12-08T19:20:21.239Z,10.00
2022-12-08T19:22:54.918Z,9.67
2022-12-08T19:25:22.137Z,8.63
2022-12-08T19:27:49.689Z,10.07
2022-12-08T19:30:23.934Z,11.73
2022-12-08T19:32:54.019Z,8.30
2022-12-08T19:35:21.137Z,8.83
2022-12-08T19:37:55.020Z,9.27
2022-12-08T19:40:41.202Z,7.87
2022-12-08T19:43:44.010Z,8.80
2022-12-08T19:46:11.218Z,11.67
2022-12-08T19:48:50.920Z,11.33
2022-12-08T19:51:18.064Z,7.70
2022-12-08T19:53:48.127Z,8.20
2022-12-08T19:56:21.894Z,7.40
2022-12-08T19:58:49.064Z,9.27
2022-12-08T20:01:16.837Z,8.30
2022-12-08T20:03:50.854Z,6.90
2022-12-08T20:06:19.240Z,6.43
2022-12-08T20:08:50.580Z,6.00
2022-12-08T20:11:24.883Z,8.13
2022-12-08T20:13:52.008Z,8.23
2022-12-08T20:16:19.372Z,7.70
2022-12-08T20:18:54.890Z,8.77
2022-12-08T20:21:22.362Z,8.17
2022-12-08T20:23:49.937Z,7.63
2022-12-08T20:26:30.483Z,8.17
2022-12-08T20:28:57.601Z,6.80
2022-12-08T20:31:35.160Z,7.13
2022-12-08T20:34:02.374Z,7.20
2022-12-08T20:36:30.098Z,7.27
2022-12-08T20:39:03.985Z,6.43
2022-12-08T20:41:34.840Z,8.73
2022-12-08T20:44:13.302Z,7.33
2022-12-08T20:46:49.649Z,7.70
2022-12-08T20:49:34.408Z,7.93
2022-12-08T20:52:02.002Z,9.73
2022-12-08T20:54:29.212Z,11.17
2022-12-08T20:57:03.919Z,17.27
2022-12-08T20:59:31.084Z,17.33
2022-12-08T21:02:00.398Z,14.80
2022-12-08T21:04:35.303Z,14.60
2022-12-08T21:07:02.786Z,18.53
2022-12-08T21:09:30.378Z,15.63
2022-12-08T21:12:04.058Z,17.50
2022-12-08T21:14:31.171Z,18.37
2022-12-08T21:16:58.529Z,20.03
2022-12-08T21:19:31.883Z,16.30
2022-12-08T21:21:58.976Z,17.90
2022-12-08T21:24:31.970Z,19.87
2022-12-08T21:27:08.157Z,22.50
2022-12-08T21:29:35.214Z,17.80
2022-12-08T21:32:02.416Z,16.53
2022-12-08T21:34:40.972Z,17.70
2022-12-08T21:37:08.344Z,15.77
2022-12-08T21:39:35.601Z,14.50
2022-12-08T21:42:33.735Z,12.63
2022-12-08T21:45:01.333Z,18.00
2022-12-08T21:47:41.952Z,15.90
2022-12-08T21:50:16.885Z,20.73
2022-12-08T21:52:53.000Z,15.50
2022-12-08T21:55:20.846Z,17.53
2022-12-08T21:57:47.923Z,13.43
2022-12-08T22:00:25.201Z,16.47
2022-12-08T22:02:52.944Z,17.23
2022-12-08T22:05:20.286Z,14.80
2022-12-08T22:07:54.169Z,13.53
2022-12-08T22:10:21.465Z,13.23
2022-12-08T22:12:49.107Z,14.73
2022-12-08T22:15:23.082Z,17.43
2022-12-08T22:17:50.425Z,14.37
2022-12-08T22:20:17.722Z,12.90
2022-12-08T22:22:51.961Z,14.53
2022-12-08T22:25:19.161Z,15.17
2022-12-08T22:27:46.320Z,16.47
2022-12-08T22:30:19.925Z,14.20
2022-12-08T22:32:47.253Z,16.47
2022-12-08T22:35:14.277Z,12.87
2022-12-08T22:37:48.080Z,12.87
2022-12-08T22:40:15.589Z,12.13
2022-12-08T22:42:42.649Z,13.03
2022-12-08T22:45:16.919Z,11.20
2022-12-08T22:47:50.243Z,13.83
2022-12-08T22:50:29.884Z,13.93
2022-12-08T22:52:56.991Z,11.33
2022-12-08T22:55:24.311Z,12.97
2022-12-08T22:57:58.164Z,10.13
2022-12-08T23:00:25.227Z,16.33
2022-12-08T23:02:52.254Z,13.13
2022-12-08T23:05:26.129Z,12.23
2022-12-08T23:07:53.312Z,10.43
2022-12-08T23:10:20.651Z,14.53
2022-12-08T23:12:56.810Z,10.67
2022-12-08T23:15:26.769Z,11.83
2022-12-08T23:17:54.019Z,11.40
2022-12-08T23:20:27.897Z,14.23
2022-12-08T23:22:55.228Z,13.67
2022-12-08T23:25:22.511Z,12.77
2022-12-08T23:28:08.904Z,14.33
2022-12-08T23:30:36.541Z,14.47
2022-12-08T23:33:04.845Z,12.73
2022-12-08T23:35:38.994Z,11.90
2022-12-08T23:38:06.212Z,12.73
2022-12-08T23:40:33.283Z,14.47
2022-12-08T23:43:07.089Z,12.83
2022-12-08T23:45:34.412Z,12.27
2022-12-08T23:48:21.960Z,11.27
2022-12-08T23:50:49.485Z,11.83
2022-12-08T23:53:17.478Z,12.57
2022-12-08T23:55:51.416Z,14.00
2022-12-08T23:58:18.547Z,15.07
